Bei Facebook empfehlenBei Twitter postenGoogle plusPinterest

Das Wetter im Erzgebirge am 19.07.2017

Wetter und Klima am 19.07.2017 Holzhau im Erzgebirge (630m ü.NN)
Letzte gemessene Temperatur und Uhrzeit der Messung23:45:00 Uhr17.80 °C
Temperatur (Maximum / Höchstwert) und Uhrzeit der Messung17:00:00 Uhr31.30 °C
Temperatur (Minimum / Tiefstwert) und Uhrzeit der Messung06:00:0011.80 °C
Errechneter Absolutwert der Temperaturschwankungen zwischen Tmin und Tmax des Tages19.50 K
Errechnete Tagesmitteltemperatur21.35104 °C
Gesamt - Niederschlag des Tages (in flüssiger Form)0.00 Liter / m²
Luftdruck (Maximum / Höchstwert) und Zeitpunkt der Messung00:00:00 Uhr1016.00 hPa
Luftdruck (Minimum / Tiefstwert) und Zeitpunkt der Messung21:15:00 Uhr1010.20 hPa
Errechneter Absolutwert der Luftdruckschwankungen des Tages5.80 hPa
Höchste gemessene Windgeschwindigkeit und Uhrzeit der Messung12:45:00 Uhr33.84 km/h
Errechnete Windhäufigkeit in Relation zu den Messwerten des Tages9.37500 %
Niedrigste Windkühle (Windchill) und Zeitpunkt der Messung06:00:00 Uhr11.80 °C
Taupunkt (Maximum / Höchstwert) und Uhrzeit der Messung09:00:00 Uhr18.30 °C
Taupunkt (Minimum / Tiefstwert) und Uhrzeit der Messung06:00:0010.50 °C
Anzahl der automatisch eingelesenen Messwerte 96

Detaillierte Wetter- und Klima- Messwerte für den 19.07.2017 in Holzhau im Erzgebirge (630m ü.NN)
ZeitTemperaturLuftdruckRel. LuftfeuchteWindWindrichtungWindchillTaupunktNiederschlag l/m²
23:45:0017.80 °C1010.50 hPa75.00 %13.30 °C 
23:30:0017.90 °C1010.30 hPa74.00 %13.20 °C 
23:15:0018.30 °C1010.50 hPa74.00 %13.60 °C 
23:00:0018.30 °C1010.60 hPa74.00 %13.60 °C 
22:45:0018.60 °C1010.50 hPa74.00 %13.90 °C 
22:30:0018.70 °C1010.60 hPa74.00 %14.00 °C 
22:15:0018.90 °C1010.40 hPa73.00 %14.00 °C 
22:00:0019.30 °C1010.40 hPa72.00 %15.48 km/hSO19.30 °C14.10 °C 
21:45:0019.40 °C1010.30 hPa72.00 %14.20 °C 
21:30:0019.60 °C1010.40 hPa72.00 %14.40 °C 
21:15:0019.70 °C1010.20 hPa71.00 %14.30 °C 
21:00:0020.30 °C1010.50 hPa69.00 %14.40 °C 
20:45:0021.40 °C1010.70 hPa66.00 %14.80 °C 
20:30:0022.60 °C1010.70 hPa63.00 %15.20 °C 
20:15:0024.10 °C1010.70 hPa59.00 %15.60 °C 
20:00:0025.10 °C1010.70 hPa55.00 %15.40 °C 
19:45:0025.90 °C1010.50 hPa53.00 %15.60 °C 
19:30:0026.80 °C1010.60 hPa51.00 %15.80 °C 
19:15:0027.50 °C1010.70 hPa47.00 %15.20 °C 
19:00:0028.10 °C1010.60 hPa44.00 %14.70 °C 
18:45:0028.90 °C1010.70 hPa45.00 %14.40 km/hSW28.90 °C15.80 °C 
18:30:0028.90 °C1010.80 hPa45.00 %15.80 °C 
18:15:0028.90 °C1010.90 hPa45.00 %15.80 °C 
18:00:0029.10 °C1011.00 hPa45.00 %16.00 °C 
17:45:0030.10 °C1011.10 hPa42.00 %15.80 °C 
17:30:0030.30 °C1011.20 hPa44.00 %16.70 °C 
17:15:0031.20 °C1011.30 hPa43.00 %17.10 °C 
17:00:0031.30 °C1011.50 hPa44.00 %17.60 °C 
16:45:0031.10 °C1011.90 hPa43.00 %17.00 °C 
16:30:0030.10 °C1012.10 hPa48.00 %17.90 °C 
16:15:0028.80 °C1012.00 hPa52.00 %18.00 °C 
16:00:0028.80 °C1012.30 hPa51.00 %17.70 °C 
15:45:0027.80 °C1012.40 hPa53.00 %17.30 °C 
15:30:0026.90 °C1012.70 hPa57.00 %17.70 °C 
15:15:0026.80 °C1012.80 hPa54.00 %16.70 °C 
15:00:0026.60 °C1012.70 hPa53.00 %16.20 °C 
14:45:0026.80 °C1012.80 hPa55.00 %17.00 °C 
14:30:0026.80 °C1013.00 hPa51.00 %15.80 °C 
14:15:0027.30 °C1013.00 hPa52.00 %16.60 °C 
14:00:0026.80 °C1013.20 hPa53.00 %16.40 °C 
13:45:0027.50 °C1013.20 hPa50.00 %16.10 °C 
13:30:0027.50 °C1013.20 hPa52.00 %16.80 °C 
13:15:0028.80 °C1013.40 hPa47.00 %16.40 °C 
13:00:0029.60 °C1013.50 hPa47.00 %17.10 °C 
12:45:0029.40 °C1013.40 hPa48.00 %33.84 km/hSW31.80 °C17.20 °C 
12:30:0028.50 °C1013.50 hPa51.00 %12.96 km/hSW28.50 °C17.40 °C 
12:15:0027.70 °C1013.40 hPa52.00 %6.48 km/hSW27.70 °C16.90 °C 
12:00:0027.20 °C1013.50 hPa51.00 %16.20 °C 
11:45:0028.30 °C1013.60 hPa48.00 %16.20 °C 
11:30:0027.50 °C1013.60 hPa51.00 %16.50 °C 
11:15:0027.30 °C1013.60 hPa50.00 %16.00 °C 
11:00:0026.90 °C1013.60 hPa51.00 %15.90 °C 
10:45:0027.20 °C1013.60 hPa49.00 %15.60 °C 
10:30:0027.40 °C1013.70 hPa53.00 %17.00 °C 
10:15:0027.20 °C1013.80 hPa54.00 %17.10 °C 
10:00:0026.10 °C1013.80 hPa57.00 %16.90 °C 
09:45:0025.30 °C1013.70 hPa60.00 %17.00 °C 
09:30:0024.90 °C1013.80 hPa63.00 %17.40 °C 
09:15:0024.40 °C1013.80 hPa68.00 %18.10 °C 
09:00:0023.90 °C1013.60 hPa71.00 %18.30 °C 
08:45:0023.40 °C1013.60 hPa72.00 %18.10 °C 
08:30:0022.80 °C1013.60 hPa72.00 %17.50 °C 
08:15:0022.30 °C1013.60 hPa73.00 %16.92 km/hSO22.30 °C17.20 °C 
08:00:0021.90 °C1013.80 hPa74.00 %17.10 °C 
07:45:0020.80 °C1013.90 hPa78.00 %16.80 °C 
07:30:0018.80 °C1013.80 hPa84.00 %16.00 °C 
07:15:0015.90 °C1014.10 hPa93.00 %14.80 °C 
07:00:0014.00 °C1014.00 hPa94.00 %13.10 °C 
06:45:0013.30 °C1014.00 hPa93.00 %12.20 °C 
06:30:0012.30 °C1014.10 hPa93.00 %11.20 °C 
06:15:0011.90 °C1014.00 hPa92.00 %10.60 °C 
06:00:0011.80 °C1014.10 hPa92.00 %10.50 °C 
05:45:0011.80 °C1014.10 hPa92.00 %10.50 °C 
05:30:0011.90 °C1013.90 hPa92.00 %10.60 °C 
05:15:0012.00 °C1013.90 hPa92.00 %10.70 °C 
05:00:0012.10 °C1013.80 hPa92.00 %10.80 °C 
04:45:0012.30 °C1014.00 hPa92.00 %11.00 °C 
04:30:0012.30 °C1014.20 hPa92.00 %11.00 °C 
04:15:0012.10 °C1014.10 hPa92.00 %10.80 °C 
04:00:0012.10 °C1014.10 hPa92.00 %10.80 °C 
03:45:0012.10 °C1014.30 hPa91.00 %10.70 °C 
03:30:0012.20 °C1014.70 hPa91.00 %10.80 °C 
03:15:0012.20 °C1014.80 hPa91.00 %18.00 km/hSO12.20 °C10.80 °C 
03:00:0012.10 °C1014.80 hPa91.00 %10.70 °C 
02:45:0012.00 °C1014.80 hPa91.00 %10.60 °C 
02:30:0012.10 °C1014.90 hPa91.00 %10.70 °C 
02:15:0012.10 °C1015.10 hPa90.00 %10.50 °C 
02:00:0012.20 °C1015.10 hPa90.00 %10.60 °C 
01:45:0012.40 °C1015.30 hPa90.00 %10.80 °C 
01:30:0012.60 °C1015.40 hPa90.00 %5.04 km/hSO12.60 °C11.00 °C 
01:15:0012.70 °C1015.50 hPa90.00 %11.10 °C 
01:00:0012.70 °C1015.70 hPa90.00 %11.10 °C 
00:45:0012.90 °C1015.50 hPa89.00 %11.52 km/hSO12.90 °C11.10 °C 
00:30:0012.90 °C1015.80 hPa89.00 %11.10 °C 
00:15:0013.20 °C1015.90 hPa89.00 %11.40 °C 
00:00:0013.30 °C1016.00 hPa88.00 %11.40 °C 

Permanenter Link zu dieser Seite: Wetter im Erzgebirge am 19.07.2017
Performance-Info: Die Erstellung der Seite / Statistik(en) / Tabelle(n) erforderte 5 Datenbankserver-Abfrage(n) und dauerte 100 Millisekunden. (Dieser Messwert ist von der Gesamt-Auslastung des Servers abhängig.)
Erzgebirge - Wetter | Erzgebirge - Wetter (Mobilgeräte) | Komplette Klimadatenbank